sensor_id;sensor_type;location;lat;lon;timestamp;pressure;altitude;pressure_sealevel;temperature;humidity
7309;BME280;3695;53.330;9.876;2024-03-23T00:52:36;99875.38;;;11.83;60.10
7309;BME280;3695;53.330;9.876;2024-03-23T00:55:02;99866.75;;;12.16;59.94
7309;BME280;3695;53.330;9.876;2024-03-23T00:57:29;99869.28;;;11.92;59.67
7309;BME280;3695;53.330;9.876;2024-03-23T00:59:54;99866.75;;;12.16;59.73
7309;BME280;3695;53.330;9.876;2024-03-23T01:02:21;99872.94;;;12.35;59.56
7309;BME280;3695;53.330;9.876;2024-03-23T01:04:46;99877.28;;;12.17;59.48
7309;BME280;3695;53.330;9.876;2024-03-23T01:07:13;99864.13;;;12.22;59.74
7309;BME280;3695;53.330;9.876;2024-03-23T01:09:40;99864.09;;;12.13;59.71
7309;BME280;3695;53.330;9.876;2024-03-23T01:12:06;99853.47;;;11.90;59.80
7309;BME280;3695;53.330;9.876;2024-03-23T01:14:32;99864.97;;;12.09;59.77
7309;BME280;3695;53.330;9.876;2024-03-23T01:16:59;99863.25;;;12.23;59.67
7309;BME280;3695;53.330;9.876;2024-03-23T01:19:24;99862.41;;;12.38;59.39
7309;BME280;3695;53.330;9.876;2024-03-23T01:21:51;99856.28;;;12.51;59.32
7309;BME280;3695;53.330;9.876;2024-03-23T01:24:16;99853.63;;;12.39;59.20
7309;BME280;3695;53.330;9.876;2024-03-23T01:26:44;99859.72;;;12.30;59.09
7309;BME280;3695;53.330;9.876;2024-03-23T01:29:10;99848.22;;;11.92;59.33
7309;BME280;3695;53.330;9.876;2024-03-23T01:31:36;99849.00;;;11.72;59.85
7309;BME280;3695;53.330;9.876;2024-03-23T01:34:02;99851.75;;;12.00;59.67
7309;BME280;3695;53.330;9.876;2024-03-23T01:36:28;99849.13;;;11.98;59.96
7309;BME280;3695;53.330;9.876;2024-03-23T01:38:54;99830.72;;;12.09;59.70
7309;BME280;3695;53.330;9.876;2024-03-23T01:41:21;99827.25;;;12.23;59.59
7309;BME280;3695;53.330;9.876;2024-03-23T01:43:48;99837.81;;;12.42;59.18
7309;BME280;3695;53.330;9.876;2024-03-23T01:46:14;99826.38;;;12.17;59.07
7309;BME280;3695;53.330;9.876;2024-03-23T01:48:40;99816.69;;;12.10;59.04
7309;BME280;3695;53.330;9.876;2024-03-23T01:51:07;99811.41;;;12.08;59.12
7309;BME280;3695;53.330;9.876;2024-03-23T01:53:33;99813.88;;;11.67;59.09
7309;BME280;3695;53.330;9.876;2024-03-23T01:55:59;99804.34;;;11.92;59.81
7309;BME280;3695;53.330;9.876;2024-03-23T01:58:25;99792.13;;;12.26;59.54
7309;BME280;3695;53.330;9.876;2024-03-23T02:00:53;99790.38;;;12.23;59.26
7309;BME280;3695;53.330;9.876;2024-03-23T02:03:22;99789.50;;;12.21;59.13
7309;BME280;3695;53.330;9.876;2024-03-23T02:05:49;99794.75;;;12.20;59.10
7309;BME280;3695;53.330;9.876;2024-03-23T02:08:17;99795.50;;;11.73;59.05
7309;BME280;3695;53.330;9.876;2024-03-23T02:10:43;99794.66;;;11.74;59.35
7309;BME280;3695;53.330;9.876;2024-03-23T02:13:09;99781.56;;;12.03;59.34
7309;BME280;3695;53.330;9.876;2024-03-23T02:15:36;99785.03;;;12.01;59.69
7309;BME280;3695;53.330;9.876;2024-03-23T02:18:03;99783.25;;;11.88;59.28
7309;BME280;3695;53.330;9.876;2024-03-23T02:20:29;99787.66;;;11.95;59.41
7309;BME280;3695;53.330;9.876;2024-03-23T02:22:56;99779.75;;;11.90;59.25
7309;BME280;3695;53.330;9.876;2024-03-23T02:25:23;99769.25;;;11.96;59.55
7309;BME280;3695;53.330;9.876;2024-03-23T02:27:48;99767.44;;;11.83;59.72
7309;BME280;3695;53.330;9.876;2024-03-23T02:30:15;99770.09;;;11.94;59.68
7309;BME280;3695;53.330;9.876;2024-03-23T02:32:40;99768.38;;;11.93;59.48
7309;BME280;3695;53.330;9.876;2024-03-23T02:35:07;99763.84;;;11.66;59.47
7309;BME280;3695;53.330;9.876;2024-03-23T02:37:32;99763.94;;;11.73;59.36
7309;BME280;3695;53.330;9.876;2024-03-23T02:40:00;99754.19;;;11.65;59.49
7309;BME280;3695;53.330;9.876;2024-03-23T02:42:26;99760.22;;;11.35;59.82
7309;BME280;3695;53.330;9.876;2024-03-23T02:44:52;99760.25;;;11.41;59.94
7309;BME280;3695;53.330;9.876;2024-03-23T02:47:18;99746.31;;;11.71;59.94
7309;BME280;3695;53.330;9.876;2024-03-23T02:49:44;99749.00;;;11.77;59.82
7309;BME280;3695;53.330;9.876;2024-03-23T02:52:10;99751.59;;;11.68;59.91
7309;BME280;3695;53.330;9.876;2024-03-23T02:54:36;99751.66;;;11.89;59.64
7309;BME280;3695;53.330;9.876;2024-03-23T02:57:04;99755.09;;;11.67;59.54
7309;BME280;3695;53.330;9.876;2024-03-23T02:59:30;99756.88;;;11.72;59.86
7309;BME280;3695;53.330;9.876;2024-03-23T03:01:56;99743.72;;;11.72;59.64
7309;BME280;3695;53.330;9.876;2024-03-23T03:04:22;99730.59;;;11.77;59.42
7309;BME280;3695;53.330;9.876;2024-03-23T03:06:49;99732.06;;;11.08;59.71
7309;BME280;3695;53.330;9.876;2024-03-23T03:09:15;99718.16;;;11.36;60.16
7309;BME280;3695;53.330;9.876;2024-03-23T03:11:41;99720.72;;;11.27;60.32
7309;BME280;3695;53.330;9.876;2024-03-23T03:14:08;99718.16;;;11.41;60.38
7309;BME280;3695;53.330;9.876;2024-03-23T03:16:34;99714.72;;;11.56;60.22
7309;BME280;3695;53.330;9.876;2024-03-23T03:19:01;99717.38;;;11.66;60.00
7309;BME280;3695;53.330;9.876;2024-03-23T03:21:26;99713.91;;;11.78;59.84
7309;BME280;3695;53.330;9.876;2024-03-23T03:23:54;99717.44;;;11.81;59.68
7309;BME280;3695;53.330;9.876;2024-03-23T03:26:21;99710.41;;;11.74;59.52
7309;BME280;3695;53.330;9.876;2024-03-23T03:28:48;99708.66;;;11.84;59.42
7309;BME280;3695;53.330;9.876;2024-03-23T03:31:15;99704.28;;;11.74;59.04
7309;BME280;3695;53.330;9.876;2024-03-23T03:33:42;99705.09;;;11.71;59.43
7309;BME280;3695;53.330;9.876;2024-03-23T03:36:08;99683.16;;;11.71;59.25
7309;BME280;3695;53.330;9.876;2024-03-23T03:38:34;99697.06;;;11.26;59.67
7309;BME280;3695;53.330;9.876;2024-03-23T03:41:00;99690.22;;;11.76;59.59
7309;BME280;3695;53.330;9.876;2024-03-23T03:43:27;99691.03;;;11.60;59.22
7309;BME280;3695;53.330;9.876;2024-03-23T03:45:52;99697.09;;;11.35;59.52
7309;BME280;3695;53.330;9.876;2024-03-23T03:48:20;99692.75;;;11.45;59.69
7309;BME280;3695;53.330;9.876;2024-03-23T03:50:46;99692.75;;;11.48;59.78
7309;BME280;3695;53.330;9.876;2024-03-23T03:53:12;99696.28;;;11.54;59.79
7309;BME280;3695;53.330;9.876;2024-03-23T03:55:38;99692.78;;;11.64;59.72
7309;BME280;3695;53.330;9.876;2024-03-23T03:58:05;99677.09;;;11.75;59.63
7309;BME280;3695;53.330;9.876;2024-03-23T04:00:31;99685.78;;;11.65;59.20
7309;BME280;3695;53.330;9.876;2024-03-23T04:02:57;99674.25;;;11.19;59.38
7309;BME280;3695;53.330;9.876;2024-03-23T04:05:25;99669.06;;;11.41;59.76
7309;BME280;3695;53.330;9.876;2024-03-23T04:07:50;99671.72;;;11.58;59.71
7309;BME280;3695;53.330;9.876;2024-03-23T04:10:17;99680.50;;;11.65;59.73
7309;BME280;3695;53.330;9.876;2024-03-23T04:12:43;99669.13;;;11.57;59.46
7309;BME280;3695;53.330;9.876;2024-03-23T04:15:09;99653.28;;;11.48;59.23
7309;BME280;3695;53.330;9.876;2024-03-23T04:17:35;99647.16;;;11.47;59.47
7309;BME280;3695;53.330;9.876;2024-03-23T04:20:02;99627.03;;;11.57;59.52
7309;BME280;3695;53.330;9.876;2024-03-23T04:22:30;99655.94;;;11.54;59.29
7309;BME280;3695;53.330;9.876;2024-03-23T04:24:57;99658.59;;;11.57;59.38
7309;BME280;3695;53.330;9.876;2024-03-23T04:27:23;99659.44;;;11.48;59.33
7309;BME280;3695;53.330;9.876;2024-03-23T04:29:49;99664.69;;;11.43;59.33
7309;BME280;3695;53.330;9.876;2024-03-23T04:32:15;99655.88;;;11.26;59.42
7309;BME280;3695;53.330;9.876;2024-03-23T04:34:43;99653.25;;;11.34;59.54
7309;BME280;3695;53.330;9.876;2024-03-23T04:37:09;99656.81;;;11.53;59.58
7309;BME280;3695;53.330;9.876;2024-03-23T04:39:37;99666.44;;;11.46;59.39
7309;BME280;3695;53.330;9.876;2024-03-23T04:42:04;99672.56;;;11.33;59.43
7309;BME280;3695;53.330;9.876;2024-03-23T04:44:31;99661.94;;;11.07;59.44
7309;BME280;3695;53.330;9.876;2024-03-23T04:46:58;99666.25;;;10.93;60.11
7309;BME280;3695;53.330;9.876;2024-03-23T04:49:24;99652.34;;;11.23;60.12
7309;BME280;3695;53.330;9.876;2024-03-23T04:51:51;99654.19;;;11.54;59.71
7309;BME280;3695;53.330;9.876;2024-03-23T04:54:17;99633.06;;;11.19;59.64
7309;BME280;3695;53.330;9.876;2024-03-23T04:56:45;99626.75;;;10.81;60.20
7309;BME280;3695;53.330;9.876;2024-03-23T04:59:12;99638.34;;;11.28;59.84
7309;BME280;3695;53.330;9.876;2024-03-23T05:01:37;99654.97;;;11.23;59.33
7309;BME280;3695;53.330;9.876;2024-03-23T05:04:07;99660.25;;;11.27;59.47
7309;BME280;3695;53.330;9.876;2024-03-23T05:06:32;99660.22;;;11.23;59.70
7309;BME280;3695;53.330;9.876;2024-03-23T05:08:59;99650.66;;;11.41;59.64
7309;BME280;3695;53.330;9.876;2024-03-23T05:11:25;99647.97;;;11.29;59.37
7309;BME280;3695;53.330;9.876;2024-03-23T05:13:53;99643.47;;;10.90;59.78
7309;BME280;3695;53.330;9.876;2024-03-23T05:16:18;99639.25;;;11.42;59.73
7309;BME280;3695;53.330;9.876;2024-03-23T05:18:45;99636.63;;;11.49;59.08
7309;BME280;3695;53.330;9.876;2024-03-23T05:21:11;99648.00;;;11.41;59.36
7309;BME280;3695;53.330;9.876;2024-03-23T05:23:37;99646.25;;;11.34;59.27
7309;BME280;3695;53.330;9.876;2024-03-23T05:26:04;99646.28;;;11.45;59.06
7309;BME280;3695;53.330;9.876;2024-03-23T05:28:30;99647.13;;;11.41;58.84
7309;BME280;3695;53.330;9.876;2024-03-23T05:30:57;99646.19;;;11.22;59.24
7309;BME280;3695;53.330;9.876;2024-03-23T05:33:23;99633.09;;;11.34;59.28
7309;BME280;3695;53.330;9.876;2024-03-23T05:35:56;99620.75;;;11.11;59.22
7309;BME280;3695;53.330;9.876;2024-03-23T05:38:22;99615.53;;;11.29;59.69
7309;BME280;3695;53.330;9.876;2024-03-23T05:40:53;99606.69;;;10.96;59.34
7309;BME280;3695;53.330;9.876;2024-03-23T05:43:18;99605.00;;;11.14;59.65
7309;BME280;3695;53.330;9.876;2024-03-23T05:45:45;99604.16;;;11.31;59.43
7309;BME280;3695;53.330;9.876;2024-03-23T05:48:12;99597.00;;;10.85;59.70
7309;BME280;3695;53.330;9.876;2024-03-23T05:50:38;99598.03;;;11.43;59.60
7309;BME280;3695;53.330;9.876;2024-03-23T05:53:04;99612.06;;;11.42;59.00
7309;BME280;3695;53.330;9.876;2024-03-23T05:55:31;99619.97;;;11.45;59.13
7309;BME280;3695;53.330;9.876;2024-03-23T05:57:57;99626.09;;;11.47;58.84
7309;BME280;3695;53.330;9.876;2024-03-23T06:00:25;99614.69;;;11.34;58.88
7309;BME280;3695;53.330;9.876;2024-03-23T06:02:51;99611.88;;;10.83;59.07
7309;BME280;3695;53.330;9.876;2024-03-23T06:05:19;99610.22;;;11.11;59.26
7309;BME280;3695;53.330;9.876;2024-03-23T06:07:45;99604.19;;;11.37;58.86
7309;BME280;3695;53.330;9.876;2024-03-23T06:10:11;99602.44;;;11.47;58.91
7309;BME280;3695;53.330;9.876;2024-03-23T06:12:37;99598.88;;;11.25;59.10
7309;BME280;3695;53.330;9.876;2024-03-23T06:15:04;99596.22;;;11.18;59.21
7309;BME280;3695;53.330;9.876;2024-03-23T06:17:30;99601.50;;;11.13;59.22
7309;BME280;3695;53.330;9.876;2024-03-23T06:19:58;99592.72;;;11.23;59.44
7309;BME280;3695;53.330;9.876;2024-03-23T06:22:25;99581.34;;;11.33;59.06
7309;BME280;3695;53.330;9.876;2024-03-23T06:24:52;99591.03;;;11.37;58.81
7309;BME280;3695;53.330;9.876;2024-03-23T06:27:17;99607.69;;;11.64;59.27
7309;BME280;3695;53.330;9.876;2024-03-23T06:29:44;99604.22;;;11.62;58.89
7309;BME280;3695;53.330;9.876;2024-03-23T06:32:09;99598.09;;;11.69;58.79
7309;BME280;3695;53.330;9.876;2024-03-23T06:34:36;99597.19;;;11.61;58.38
7309;BME280;3695;53.330;9.876;2024-03-23T06:37:01;99600.69;;;11.60;58.82
7309;BME280;3695;53.330;9.876;2024-03-23T06:39:30;99607.78;;;11.74;58.51
7309;BME280;3695;53.330;9.876;2024-03-23T06:41:55;99606.00;;;11.76;58.85
7309;BME280;3695;53.330;9.876;2024-03-23T06:44:22;99596.34;;;11.85;58.36
7309;BME280;3695;53.330;9.876;2024-03-23T06:46:47;99605.03;;;11.30;58.84
7309;BME280;3695;53.330;9.876;2024-03-23T06:49:14;99602.44;;;11.70;59.00
7309;BME280;3695;53.330;9.876;2024-03-23T06:51:40;99609.44;;;11.42;58.55
7309;BME280;3695;53.330;9.876;2024-03-23T06:54:07;99596.25;;;11.34;59.24
7309;BME280;3695;53.330;9.876;2024-03-23T06:56:34;99604.22;;;11.62;59.14
7309;BME280;3695;53.330;9.876;2024-03-23T06:59:01;99587.53;;;11.45;58.89
7309;BME280;3695;53.330;9.876;2024-03-23T07:01:26;99592.78;;;11.58;59.07
7309;BME280;3695;53.330;9.876;2024-03-23T07:03:53;99589.31;;;11.62;59.04
7309;BME280;3695;53.330;9.876;2024-03-23T07:06:19;99592.78;;;11.32;58.92
7309;BME280;3695;53.330;9.876;2024-03-23T07:08:46;99592.81;;;11.51;59.41
7309;BME280;3695;53.330;9.876;2024-03-23T07:11:11;99587.44;;;11.05;59.56
7309;BME280;3695;53.330;9.876;2024-03-23T07:13:39;99593.66;;;11.31;59.65
7309;BME280;3695;53.330;9.876;2024-03-23T07:16:05;99603.34;;;11.63;59.40
7309;BME280;3695;53.330;9.876;2024-03-23T07:18:31;99605.13;;;11.80;58.96
7309;BME280;3695;53.330;9.876;2024-03-23T07:20:57;99600.69;;;11.61;59.21
7309;BME280;3695;53.330;9.876;2024-03-23T07:23:24;99596.34;;;11.77;59.22
7309;BME280;3695;53.330;9.876;2024-03-23T07:25:57;99591.91;;;11.55;58.85
7309;BME280;3695;53.330;9.876;2024-03-23T07:28:23;99591.81;;;11.11;59.30
7309;BME280;3695;53.330;9.876;2024-03-23T07:31:07;99584.00;;;11.41;59.49
7309;BME280;3695;53.330;9.876;2024-03-23T07:33:35;99595.47;;;11.90;59.07
7309;BME280;3695;53.330;9.876;2024-03-23T07:36:01;99589.34;;;11.85;58.85
7309;BME280;3695;53.330;9.876;2024-03-23T07:38:28;99590.22;;;11.87;59.25
7309;BME280;3695;53.330;9.876;2024-03-23T07:41:02;99592.84;;;11.99;58.93
7309;BME280;3695;53.330;9.876;2024-03-23T07:43:29;99587.59;;;12.05;58.35
7309;BME280;3695;53.330;9.876;2024-03-23T07:45:56;99593.66;;;11.59;58.33
7309;BME280;3695;53.330;9.876;2024-03-23T07:48:23;99588.41;;;11.71;58.35
7309;BME280;3695;53.330;9.876;2024-03-23T07:50:57;99586.66;;;12.34;58.32
7309;BME280;3695;53.330;9.876;2024-03-23T07:53:23;99587.56;;;12.23;58.31
7309;BME280;3695;53.330;9.876;2024-03-23T07:55:53;99591.06;;;12.00;58.00
7309;BME280;3695;53.330;9.876;2024-03-23T07:58:20;99577.94;;;12.04;58.45
7309;BME280;3695;53.330;9.876;2024-03-23T08:00:46;99579.56;;;12.48;57.79
7309;BME280;3695;53.330;9.876;2024-03-23T08:03:13;99576.94;;;12.42;57.77
7309;BME280;3695;53.330;9.876;2024-03-23T08:05:39;99585.69;;;12.56;57.66
7309;BME280;3695;53.330;9.876;2024-03-23T08:08:06;99586.63;;;12.41;56.89
7309;BME280;3695;53.330;9.876;2024-03-23T08:10:31;99576.97;;;12.31;57.17
7309;BME280;3695;53.330;9.876;2024-03-23T08:12:58;99577.84;;;12.30;56.92
7309;BME280;3695;53.330;9.876;2024-03-23T08:15:23;99578.59;;;12.73;56.91
7309;BME280;3695;53.330;9.876;2024-03-23T08:17:50;99577.72;;;12.83;56.93
7309;BME280;3695;53.330;9.876;2024-03-23T08:20:17;99567.22;;;12.68;56.30
7309;BME280;3695;53.330;9.876;2024-03-23T08:22:43;99560.19;;;12.61;56.01
7309;BME280;3695;53.330;9.876;2024-03-23T08:25:09;99560.88;;;13.07;56.72
7309;BME280;3695;53.330;9.876;2024-03-23T08:27:36;99566.19;;;13.01;56.29
7309;BME280;3695;53.330;9.876;2024-03-23T08:30:01;99572.16;;;13.38;55.32
7309;BME280;3695;53.330;9.876;2024-03-23T08:32:28;99569.19;;;13.82;55.17
7309;BME280;3695;53.330;9.876;2024-03-23T08:34:53;99561.63;;;13.33;54.33
7309;BME280;3695;53.330;9.876;2024-03-23T08:37:22;99565.63;;;13.86;54.35
7309;BME280;3695;53.330;9.876;2024-03-23T08:39:50;99563.41;;;13.30;54.09
7309;BME280;3695;53.330;9.876;2024-03-23T08:42:18;99558.38;;;12.80;53.92
7309;BME280;3695;53.330;9.876;2024-03-23T08:44:43;99566.81;;;13.47;53.62
7309;BME280;3695;53.330;9.876;2024-03-23T08:47:12;99558.97;;;13.33;53.03
7309;BME280;3695;53.330;9.876;2024-03-23T08:49:38;99566.06;;;13.31;53.02
7309;BME280;3695;53.330;9.876;2024-03-23T08:52:05;99560.63;;;13.51;53.52
7309;BME280;3695;53.330;9.876;2024-03-23T08:54:32;99553.19;;;12.60;54.23
7309;BME280;3695;53.330;9.876;2024-03-23T08:56:59;99561.22;;;12.30;53.91
7309;BME280;3695;53.330;9.876;2024-03-23T08:59:25;99566.13;;;13.18;54.04
7309;BME280;3695;53.330;9.876;2024-03-23T09:01:52;99561.25;;;13.80;53.53
7309;BME280;3695;53.330;9.876;2024-03-23T09:04:17;99552.94;;;13.15;53.09
7309;BME280;3695;53.330;9.876;2024-03-23T09:06:44;99556.31;;;13.41;53.00
7309;BME280;3695;53.330;9.876;2024-03-23T09:09:09;99548.34;;;13.47;52.31
7309;BME280;3695;53.330;9.876;2024-03-23T09:11:37;99542.44;;;13.05;53.36
7309;BME280;3695;53.330;9.876;2024-03-23T09:14:03;99555.63;;;14.20;52.86
7309;BME280;3695;53.330;9.876;2024-03-23T09:16:30;99538.66;;;14.42;51.93
7309;BME280;3695;53.330;9.876;2024-03-23T09:18:55;99537.34;;;14.80;51.45
7309;BME280;3695;53.330;9.876;2024-03-23T09:21:22;99536.53;;;14.75;51.06
7309;BME280;3695;53.330;9.876;2024-03-23T09:23:48;99543.16;;;14.31;51.05
7309;BME280;3695;53.330;9.876;2024-03-23T09:26:14;99548.63;;;14.16;51.39
7309;BME280;3695;53.330;9.876;2024-03-23T09:28:41;99543.56;;;13.92;51.09
7309;BME280;3695;53.330;9.876;2024-03-23T09:31:08;99541.66;;;14.06;51.33
7309;BME280;3695;53.330;9.876;2024-03-23T09:33:35;99533.44;;;14.38;50.64
7309;BME280;3695;53.330;9.876;2024-03-23T09:36:03;99541.94;;;13.75;50.17
7309;BME280;3695;53.330;9.876;2024-03-23T09:38:29;99522.41;;;12.71;49.73
7309;BME280;3695;53.330;9.876;2024-03-23T09:40:56;99540.72;;;13.01;50.43
7309;BME280;3695;53.330;9.876;2024-03-23T09:43:22;99534.31;;;13.42;50.04
7309;BME280;3695;53.330;9.876;2024-03-23T09:45:50;99542.34;;;13.21;49.70
7309;BME280;3695;53.330;9.876;2024-03-23T09:48:16;99545.78;;;13.33;49.39
7309;BME280;3695;53.330;9.876;2024-03-23T09:50:44;99535.22;;;13.35;49.33
7309;BME280;3695;53.330;9.876;2024-03-23T09:53:11;99529.13;;;13.31;48.95
7309;BME280;3695;53.330;9.876;2024-03-23T09:55:39;99534.13;;;13.63;48.46
7309;BME280;3695;53.330;9.876;2024-03-23T09:58:05;99532.19;;;13.83;48.67
7309;BME280;3695;53.330;9.876;2024-03-23T10:00:32;99529.56;;;13.80;48.72
7309;BME280;3695;53.330;9.876;2024-03-23T10:02:59;99521.16;;;14.29;48.88
7309;BME280;3695;53.330;9.876;2024-03-23T10:05:27;99527.28;;;14.34;48.83
7309;BME280;3695;53.330;9.876;2024-03-23T10:07:53;99524.53;;;14.46;48.17
7309;BME280;3695;53.330;9.876;2024-03-23T10:10:20;99518.44;;;14.35;48.26
7309;BME280;3695;53.330;9.876;2024-03-23T10:12:47;99522.44;;;13.92;48.36
7309;BME280;3695;53.330;9.876;2024-03-23T10:15:18;99518.94;;;13.90;48.70
7309;BME280;3695;53.330;9.876;2024-03-23T10:17:45;99519.41;;;13.35;48.15
7309;BME280;3695;53.330;9.876;2024-03-23T10:20:13;99521.13;;;13.42;48.91
7309;BME280;3695;53.330;9.876;2024-03-23T10:22:44;99517.47;;;13.57;48.71
7309;BME280;3695;53.330;9.876;2024-03-23T10:25:11;99510.34;;;13.66;48.62
7309;BME280;3695;53.330;9.876;2024-03-23T10:27:37;99509.41;;;13.72;48.17
7309;BME280;3695;53.330;9.876;2024-03-23T10:30:08;99499.75;;;13.72;47.99
7309;BME280;3695;53.330;9.876;2024-03-23T10:32:34;99495.91;;;14.04;46.77
7309;BME280;3695;53.330;9.876;2024-03-23T10:35:23;99490.69;;;13.96;46.94
7309;BME280;3695;53.330;9.876;2024-03-23T10:37:51;99500.19;;;14.14;46.59
7309;BME280;3695;53.330;9.876;2024-03-23T10:40:17;99496.09;;;13.85;47.45
7309;BME280;3695;53.330;9.876;2024-03-23T10:42:44;99490.78;;;13.89;47.60
7309;BME280;3695;53.330;9.876;2024-03-23T10:45:10;99487.59;;;13.55;46.88
7309;BME280;3695;53.330;9.876;2024-03-23T10:47:37;99488.25;;;13.76;47.41
7309;BME280;3695;53.330;9.876;2024-03-23T10:50:04;99491.47;;;14.06;47.95
7309;BME280;3695;53.330;9.876;2024-03-23T10:52:33;99483.53;;;14.06;47.30
7309;BME280;3695;53.330;9.876;2024-03-23T10:54:59;99492.59;;;13.85;47.27
7309;BME280;3695;53.330;9.876;2024-03-23T10:57:31;99486.72;;;14.37;47.47
7309;BME280;3695;53.330;9.876;2024-03-23T11:00:01;99472.72;;;14.28;46.82
7309;BME280;3695;53.330;9.876;2024-03-23T11:02:29;99482.84;;;13.92;46.30
7309;BME280;3695;53.330;9.876;2024-03-23T11:04:55;99484.84;;;14.49;46.48
7309;BME280;3695;53.330;9.876;2024-03-23T11:07:29;99472.97;;;14.82;47.03
7309;BME280;3695;53.330;9.876;2024-03-23T11:09:57;99473.47;;;14.43;46.48
7309;BME280;3695;53.330;9.876;2024-03-23T11:12:28;99476.38;;;14.17;46.64
7309;BME280;3695;53.330;9.876;2024-03-23T11:14:57;99475.63;;;14.06;46.81
7309;BME280;3695;53.330;9.876;2024-03-23T11:17:26;99485.66;;;13.70;46.77
7309;BME280;3695;53.330;9.876;2024-03-23T11:19:56;99474.53;;;13.35;47.06
7309;BME280;3695;53.330;9.876;2024-03-23T11:22:42;99470.09;;;13.40;47.84
7309;BME280;3695;53.330;9.876;2024-03-23T11:25:17;99476.16;;;13.51;48.00
7309;BME280;3695;53.330;9.876;2024-03-23T11:27:46;99474.09;;;13.82;47.85
7309;BME280;3695;53.330;9.876;2024-03-23T11:30:13;99468.50;;;14.14;47.78
7309;BME280;3695;53.330;9.876;2024-03-23T11:32:40;99463.28;;;14.09;47.00
7309;BME280;3695;53.330;9.876;2024-03-23T11:35:06;99459.13;;;14.60;47.50
7309;BME280;3695;53.330;9.876;2024-03-23T11:37:35;99470.09;;;14.96;46.23
7309;BME280;3695;53.330;9.876;2024-03-23T11:40:18;99456.41;;;14.66;46.07
7309;BME280;3695;53.330;9.876;2024-03-23T11:42:45;99468.31;;;14.98;45.72
7309;BME280;3695;53.330;9.876;2024-03-23T11:45:11;99461.94;;;14.48;45.67
7309;BME280;3695;53.330;9.876;2024-03-23T11:47:39;99458.94;;;14.04;46.12
7309;BME280;3695;53.330;9.876;2024-03-23T11:50:05;99456.03;;;14.23;45.30
7309;BME280;3695;53.330;9.876;2024-03-23T11:52:31;99464.66;;;14.41;44.97
7309;BME280;3695;53.330;9.876;2024-03-23T11:55:03;99453.81;;;14.63;42.63
7309;BME280;3695;53.330;9.876;2024-03-23T11:57:31;99454.41;;;14.84;44.98
7309;BME280;3695;53.330;9.876;2024-03-23T11:59:56;99445.38;;;14.97;43.77
7309;BME280;3695;53.330;9.876;2024-03-23T12:02:23;99442.47;;;15.14;44.26
7309;BME280;3695;53.330;9.876;2024-03-23T12:04:49;99435.16;;;15.31;44.47
7309;BME280;3695;53.330;9.876;2024-03-23T12:07:17;99436.84;;;14.80;44.24
7309;BME280;3695;53.330;9.876;2024-03-23T12:09:44;99440.03;;;15.01;44.18
7309;BME280;3695;53.330;9.876;2024-03-23T12:12:15;99435.06;;;14.79;43.42
7309;BME280;3695;53.330;9.876;2024-03-23T12:14:42;99433.75;;;15.08;44.59
7309;BME280;3695;53.330;9.876;2024-03-23T12:17:10;99424.56;;;14.76;44.13
7309;BME280;3695;53.330;9.876;2024-03-23T12:19:36;99419.88;;;14.94;44.19
7309;BME280;3695;53.330;9.876;2024-03-23T12:22:03;99440.75;;;14.51;43.54
7309;BME280;3695;53.330;9.876;2024-03-23T12:24:29;99440.25;;;14.20;43.58
7309;BME280;3695;53.330;9.876;2024-03-23T12:27:02;99443.72;;;14.90;44.17
7309;BME280;3695;53.330;9.876;2024-03-23T12:29:29;99450.22;;;14.68;44.36
7309;BME280;3695;53.330;9.876;2024-03-23T12:31:59;99447.09;;;14.40;44.73
7309;BME280;3695;53.330;9.876;2024-03-23T12:34:24;99458.03;;;14.77;45.18
7309;BME280;3695;53.330;9.876;2024-03-23T12:36:51;99453.06;;;15.14;45.23
7309;BME280;3695;53.330;9.876;2024-03-23T12:39:16;99459.38;;;14.41;44.47
7309;BME280;3695;53.330;9.876;2024-03-23T12:41:43;99455.53;;;13.91;46.17
7309;BME280;3695;53.330;9.876;2024-03-23T12:44:09;99451.34;;;14.51;46.15
7309;BME280;3695;53.330;9.876;2024-03-23T12:46:37;99466.00;;;14.02;46.15
7309;BME280;3695;53.330;9.876;2024-03-23T12:49:04;99472.63;;;13.51;46.76
7309;BME280;3695;53.330;9.876;2024-03-23T12:51:31;99475.97;;;12.40;45.42
7309;BME280;3695;53.330;9.876;2024-03-23T12:53:56;99488.06;;;12.80;45.24
7309;BME280;3695;53.330;9.876;2024-03-23T12:56:23;99495.16;;;12.69;45.78
7309;BME280;3695;53.330;9.876;2024-03-23T12:58:49;99482.78;;;12.80;45.75
7309;BME280;3695;53.330;9.876;2024-03-23T13:01:16;99472.38;;;12.57;45.96
7309;BME280;3695;53.330;9.876;2024-03-23T13:03:42;99467.09;;;12.62;45.59
7309;BME280;3695;53.330;9.876;2024-03-23T13:06:11;99464.06;;;13.26;45.62
7309;BME280;3695;53.330;9.876;2024-03-23T13:08:36;99461.66;;;12.89;44.35
7309;BME280;3695;53.330;9.876;2024-03-23T13:11:03;99464.91;;;13.26;44.75
7309;BME280;3695;53.330;9.876;2024-03-23T13:13:29;99463.19;;;13.25;45.30
7309;BME280;3695;53.330;9.876;2024-03-23T13:15:57;99490.50;;;13.20;45.73
7309;BME280;3695;53.330;9.876;2024-03-23T13:18:22;99486.31;;;12.82;47.42
7309;BME280;3695;53.330;9.876;2024-03-23T13:20:49;99502.50;;;11.80;48.56
7309;BME280;3695;53.330;9.876;2024-03-23T13:23:16;99535.81;;;11.74;49.13
7309;BME280;3695;53.330;9.876;2024-03-23T13:25:49;99530.53;;;12.04;49.34
7309;BME280;3695;53.330;9.876;2024-03-23T13:28:15;99538.41;;;11.30;49.96
7309;BME280;3695;53.330;9.876;2024-03-23T13:30:49;99544.56;;;11.76;50.21
7309;BME280;3695;53.330;9.876;2024-03-23T13:33:15;99542.78;;;11.20;50.64
7309;BME280;3695;53.330;9.876;2024-03-23T13:35:49;99544.53;;;11.20;50.88
7309;BME280;3695;53.330;9.876;2024-03-23T13:38:16;99555.91;;;11.11;51.02
7309;BME280;3695;53.330;9.876;2024-03-23T13:40:50;99552.31;;;10.80;51.49
7309;BME280;3695;53.330;9.876;2024-03-23T13:43:16;99546.25;;;11.07;52.21
7309;BME280;3695;53.330;9.876;2024-03-23T13:45:42;99547.16;;;11.30;52.81
7309;BME280;3695;53.330;9.876;2024-03-23T13:48:08;99537.50;;;11.23;53.43
7309;BME280;3695;53.330;9.876;2024-03-23T13:50:34;99537.50;;;11.34;53.38
7309;BME280;3695;53.330;9.876;2024-03-23T13:53:00;99525.25;;;11.95;53.13
7309;BME280;3695;53.330;9.876;2024-03-23T13:55:28;99513.63;;;12.61;52.80
7309;BME280;3695;53.330;9.876;2024-03-23T13:57:53;99509.34;;;12.41;52.29
7309;BME280;3695;53.330;9.876;2024-03-23T14:00:20;99511.19;;;12.10;52.50
7309;BME280;3695;53.330;9.876;2024-03-23T14:02:45;99517.22;;;12.53;52.54
7309;BME280;3695;53.330;9.876;2024-03-23T14:05:12;99517.03;;;12.88;51.96
7309;BME280;3695;53.330;9.876;2024-03-23T14:07:38;99511.03;;;12.55;51.36
7309;BME280;3695;53.330;9.876;2024-03-23T14:10:05;99508.78;;;13.44;51.28
7309;BME280;3695;53.330;9.876;2024-03-23T14:12:33;99514.66;;;13.75;50.41